Time;durP1;ratioP1;P1;durP2;ratioP2;P2;SDS_P1;SDS_P2;PMS_P1;PMS_P2;Temp;Humidity;BMP_temperature;BMP_pressure;BME280_temperature;BME280_humidity;BME280_pressure;Samples;Min_cycle;Max_cycle;Signal;HPM_P1;HPM_P2
2021/12/19 00:00:30;;;;;;;3.20;1.72;;;;;;;0.94;68.49;100841.22;1826934;77;20943;-77
2021/12/19 00:03:30;;;;;;;1.30;0.98;;;;;;;0.89;68.77;100839.57;1827163;77;20880;-76
2021/12/19 00:08:34;;;;;;;2.50;1.12;;;;;;;0.81;69.39;100826.80;1826912;78;21160;-79
2021/12/19 00:10:57;;;;;;;1.37;0.80;;;;;;;0.75;69.72;100828.19;1826051;78;20947;-77
2021/12/19 00:13:25;;;;;;;1.32;1.20;;;;;;;0.73;70.18;100823.05;1826823;78;20884;-75
2021/12/19 00:15:53;;;;;;;3.33;1.12;;;;;;;0.70;70.55;100822.26;1826824;78;20983;-77
2021/12/19 00:18:20;;;;;;;1.42;1.20;;;;;;;0.68;70.80;100814.98;1827058;78;20915;-75
2021/12/19 00:20:47;;;;;;;2.00;1.50;;;;;;;0.66;71.14;100810.27;1827019;78;21437;-78
2021/12/19 00:23:14;;;;;;;1.00;0.80;;;;;;;0.65;71.40;100812.02;1830320;77;20998;-79
2021/12/19 00:25:41;;;;;;;1.37;0.75;;;;;;;0.61;71.59;100806.48;1830414;77;20889;-78
2021/12/19 00:28:08;;;;;;;2.67;1.15;;;;;;;0.60;71.93;100802.18;1830955;77;20868;-78
2021/12/19 00:30:35;;;;;;;2.45;1.40;;;;;;;0.57;72.27;100797.92;1830293;77;20856;-78
2021/12/19 00:33:02;;;;;;;2.02;1.12;;;;;;;0.57;72.58;100797.08;1830645;77;21025;-79
2021/12/19 00:35:30;;;;;;;4.12;2.08;;;;;;;0.53;72.78;100788.97;1829912;77;20948;-78
2021/12/19 00:37:56;;;;;;;3.35;1.60;;;;;;;0.49;73.02;100782.14;1830356;78;20963;-78
2021/12/19 00:40:23;;;;;;;3.12;1.75;;;;;;;0.49;73.25;100776.58;1830213;77;20896;-77
2021/12/19 00:43:03;;;;;;;4.10;2.50;;;;;;;0.46;73.31;100771.89;1830758;78;20939;-78
2021/12/19 00:45:29;;;;;;;1.55;1.45;;;;;;;0.44;73.41;100765.90;1828588;77;21087;-78
2021/12/19 00:47:53;;;;;;;1.82;1.60;;;;;;;0.40;73.52;100763.38;1830231;77;20868;-78
2021/12/19 00:50:20;;;;;;;1.52;1.42;;;;;;;0.40;73.67;100755.64;1830508;77;20888;-78
2021/12/19 00:52:47;;;;;;;1.70;1.47;;;;;;;0.38;73.75;100759.97;1830718;78;20955;-78
2021/12/19 00:55:18;;;;;;;3.05;1.75;;;;;;;0.39;73.75;100762.95;1830611;78;20911;-78
2021/12/19 00:57:45;;;;;;;3.05;1.90;;;;;;;0.38;73.82;100761.70;1830375;78;21192;-79
2021/12/19 01:00:16;;;;;;;3.85;1.80;;;;;;;0.38;73.91;100756.10;1827256;78;20832;-78
2021/12/19 01:02:42;;;;;;;2.25;1.67;;;;;;;0.38;73.86;100757.39;1827318;78;20883;-77
2021/12/19 01:05:11;;;;;;;3.75;1.98;;;;;;;0.39;73.83;100750.50;1827432;78;21372;-77
2021/12/19 01:07:38;;;;;;;3.10;2.02;;;;;;;0.39;73.81;100746.18;1827608;78;20927;-78
2021/12/19 01:10:06;;;;;;;2.92;1.95;;;;;;;0.40;73.87;100745.32;1827359;78;21132;-75
2021/12/19 01:12:37;;;;;;;3.12;2.17;;;;;;;0.41;73.80;100747.45;1827332;77;20840;-77
2021/12/19 01:15:06;;;;;;;2.45;2.08;;;;;;;0.39;73.75;100733.28;1827975;78;20864;-77
2021/12/19 01:17:33;;;;;;;2.27;1.55;;;;;;;0.39;73.52;100730.70;1827518;78;20852;-76
2021/12/19 01:19:59;;;;;;;3.10;1.70;;;;;;;0.36;73.31;100720.89;1830595;78;20974;-77
2021/12/19 01:22:27;;;;;;;2.70;1.80;;;;;;;0.37;73.32;100714.84;1833531;77;21011;-78
2021/12/19 01:24:53;;;;;;;1.62;1.47;;;;;;;0.37;73.08;100716.13;1833175;78;21349;-78
2021/12/19 01:27:20;;;;;;;1.55;1.45;;;;;;;0.36;72.65;100706.27;1833154;78;20958;-78
2021/12/19 01:29:47;;;;;;;3.72;1.92;;;;;;;0.36;72.58;100706.70;1833360;78;21365;-77
2021/12/19 01:32:14;;;;;;;1.82;1.72;;;;;;;0.38;72.21;100701.93;1833167;78;20899;-77
2021/12/19 01:34:42;;;;;;;2.00;1.70;;;;;;;0.39;71.93;100705.36;1833832;77;22000;-78
2021/12/19 01:37:09;;;;;;;2.30;1.67;;;;;;;0.38;71.49;100701.93;1835629;78;20954;-77
2021/12/19 01:39:36;;;;;;;3.42;1.67;;;;;;;0.39;71.42;100693.75;1833741;78;21460;-75
2021/12/19 01:42:04;;;;;;;1.85;1.62;;;;;;;0.39;71.10;100684.27;1833059;78;20875;-76
2021/12/19 01:44:30;;;;;;;1.65;1.27;;;;;;;0.41;70.99;100686.39;1817215;78;20880;-78
2021/12/19 01:46:59;;;;;;;1.90;1.30;;;;;;;0.43;70.65;100675.21;1833296;77;21494;-79
2021/12/19 01:49:26;;;;;;;1.90;1.80;;;;;;;0.44;70.35;100679.03;1833069;78;20852;-77
2021/12/19 01:51:52;;;;;;;1.57;1.00;;;;;;;0.44;70.06;100675.16;1833423;78;20903;-76
2021/12/19 01:54:19;;;;;;;2.20;1.40;;;;;;;0.45;69.73;100661.41;1833033;78;20921;-79
2021/12/19 01:56:46;;;;;;;1.32;1.22;;;;;;;0.45;69.48;100661.84;1833419;78;21365;-78
2021/12/19 01:59:13;;;;;;;1.37;1.25;;;;;;;0.45;69.28;100667.01;1833150;77;21140;-78
2021/12/19 02:01:44;;;;;;;0.78;0.78;;;;;;;0.44;69.25;100654.97;1833153;78;21504;-79
2021/12/19 02:04:12;;;;;;;1.05;0.90;;;;;;;0.45;68.91;100650.24;1833031;77;20844;-77
2021/12/19 02:06:40;;;;;;;1.70;1.60;;;;;;;0.45;68.71;100657.98;1832987;78;20966;-77
2021/12/19 02:09:08;;;;;;;2.22;1.32;;;;;;;0.43;68.43;100655.42;1833042;77;21479;-78
2021/12/19 02:11:35;;;;;;;1.52;1.22;;;;;;;0.39;68.39;100649.45;1833281;78;21109;-77
2021/12/19 02:14:03;;;;;;;1.00;0.90;;;;;;;0.38;68.43;100646.92;1833017;78;20864;-79
2021/12/19 02:16:30;;;;;;;1.42;0.98;;;;;;;0.35;68.44;100643.93;1833317;78;21048;-78
2021/12/19 02:18:58;;;;;;;2.08;1.60;;;;;;;0.33;68.35;100644.39;1832788;77;20962;-79
2021/12/19 02:21:25;;;;;;;1.37;1.27;;;;;;;0.32;68.43;100641.41;1826942;77;20923;-77
2021/12/19 02:23:52;;;;;;;3.00;1.72;;;;;;;0.31;68.63;100633.69;1827352;77;21467;-77
2021/12/19 02:26:19;;;;;;;2.77;1.72;;;;;;;0.29;68.61;100621.27;1778866;78;20957;-78
2021/12/19 02:28:46;;;;;;;2.05;1.60;;;;;;;0.30;68.67;100612.66;1826958;78;20935;-77
2021/12/19 02:31:13;;;;;;;1.42;1.30;;;;;;;0.28;68.96;100602.36;1827031;78;20915;-77
2021/12/19 02:33:43;;;;;;;2.47;2.22;;;;;;;0.29;68.94;100605.78;1826927;78;20923;-78
2021/12/19 02:49:25;;;;;;;2.83;2.55;;;;;;;0.30;69.44;100594.61;1826924;78;21158;-78
2021/12/19 02:51:53;;;;;;;2.90;2.60;;;;;;;0.32;69.50;100596.28;1826836;78;21389;-77
2021/12/19 02:54:21;;;;;;;3.62;2.92;;;;;;;0.31;69.59;100593.30;1826892;77;20884;-77
2021/12/19 02:56:49;;;;;;;2.90;2.70;;;;;;;0.33;69.44;100578.63;1826809;77;20966;-78
2021/12/19 02:59:16;;;;;;;4.08;3.67;;;;;;;0.32;69.41;100562.75;1826820;78;21318;-78
2021/12/19 03:01:44;;;;;;;5.12;4.55;;;;;;;0.33;69.50;100561.86;1826846;78;21556;-79
2021/12/19 03:04:12;;;;;;;3.70;3.20;;;;;;;0.33;69.63;100552.83;1826906;77;21365;-76
2021/12/19 03:06:47;;;;;;;3.58;3.05;;;;;;;0.33;69.63;100546.83;1827114;77;20891;-78
2021/12/19 03:09:30;;;;;;;3.65;3.00;;;;;;;0.30;69.72;100540.00;1826830;78;20907;-77
2021/12/19 03:12:04;;;;;;;4.03;3.62;;;;;;;0.28;69.62;100540.91;1825194;78;20825;-80
2021/12/19 03:19:47;;;;;;;3.12;2.80;;;;;;;0.26;70.16;100520.75;1828092;77;20994;-76
2021/12/19 03:22:13;;;;;;;3.58;3.12;;;;;;;0.25;70.23;100527.65;1833244;77;20958;-79
2021/12/19 03:24:40;;;;;;;5.28;4.35;;;;;;;0.25;70.43;100524.23;1833442;78;20951;-77
2021/12/19 03:27:07;;;;;;;13.25;7.55;;;;;;;0.24;70.65;100509.17;1832919;77;22028;-77
2021/12/19 03:29:35;;;;;;;4.08;3.77;;;;;;;0.22;70.89;100501.90;1832900;77;21570;-78
2021/12/19 03:32:02;;;;;;;3.72;3.10;;;;;;;0.23;70.86;100498.45;1833142;77;20872;-79
2021/12/19 03:34:29;;;;;;;4.42;3.12;;;;;;;0.22;71.06;100486.88;1832951;78;20978;-78
2021/12/19 03:36:56;;;;;;;3.65;3.30;;;;;;;0.19;71.25;100482.63;1833166;77;20871;-77
2021/12/19 03:39:33;;;;;;;4.70;3.17;;;;;;;0.16;71.50;100473.23;1833026;77;21548;-78
2021/12/19 03:41:55;;;;;;;4.37;2.37;;;;;;;0.18;71.56;100479.66;1832361;77;20860;-78
2021/12/19 03:44:22;;;;;;;4.62;3.00;;;;;;;0.18;71.75;100474.50;1833260;77;20951;-80
2021/12/19 03:46:48;;;;;;;3.40;2.77;;;;;;;0.18;71.95;100466.31;1833004;78;21440;-76
2021/12/19 03:49:18;;;;;;;3.50;3.20;;;;;;;0.19;72.09;100474.45;1833276;76;20856;-77
2021/12/19 03:51:44;;;;;;;2.83;2.62;;;;;;;0.19;72.32;100469.73;1833110;77;21529;-78
2021/12/19 03:54:10;;;;;;;2.65;2.45;;;;;;;0.19;72.29;100468.00;1833246;78;21417;-75
2021/12/19 03:56:37;;;;;;;3.22;2.90;;;;;;;0.20;72.42;100467.14;1832943;78;20951;-78
2021/12/19 03:59:04;;;;;;;2.92;2.62;;;;;;;0.22;72.51;100452.91;1833193;77;21029;-79
2021/12/19 04:01:32;;;;;;;3.02;2.08;;;;;;;0.21;72.56;100460.25;1832983;78;20907;-78
2021/12/19 04:03:59;;;;;;;3.47;2.50;;;;;;;0.21;72.79;100457.66;1833327;77;21489;-78
2021/12/19 04:06:27;;;;;;;3.58;2.75;;;;;;;0.19;72.66;100464.13;1833394;78;21025;-78
2021/12/19 04:08:56;;;;;;;3.60;3.30;;;;;;;0.21;72.77;100467.98;1833288;77;20848;-79
2021/12/19 04:11:25;;;;;;;3.42;2.55;;;;;;;0.23;72.81;100464.09;1834016;78;20871;-76
2021/12/19 04:13:52;;;;;;;3.30;2.77;;;;;;;0.24;72.83;100460.63;1833426;78;20951;-78
2021/12/19 04:16:20;;;;;;;3.33;3.02;;;;;;;0.24;72.86;100452.44;1833187;77;20943;-79
2021/12/19 04:18:47;;;;;;;3.90;3.00;;;;;;;0.24;73.11;100461.46;1832904;78;21009;-81
2021/12/19 04:21:14;;;;;;;3.52;3.12;;;;;;;0.25;73.14;100454.59;1828738;78;21450;-80
2021/12/19 04:23:41;;;;;;;2.33;2.15;;;;;;;0.24;73.27;100444.70;1827196;78;20943;-80
2021/12/19 04:26:08;;;;;;;3.87;2.30;;;;;;;0.27;73.10;100439.91;1826930;78;21380;-80
2021/12/19 04:28:35;;;;;;;3.27;2.58;;;;;;;0.26;73.09;100445.97;1827390;78;21031;-80
2021/12/19 04:31:03;;;;;;;3.50;3.20;;;;;;;0.26;73.21;100431.34;1826738;77;20833;-78
2021/12/19 04:33:33;;;;;;;3.33;2.85;;;;;;;0.26;73.12;100431.78;1826932;77;20916;-79
2021/12/19 04:36:03;;;;;;;4.75;3.72;;;;;;;0.27;73.17;100445.07;1826824;78;21397;-81
2021/12/19 04:57:32;;;;;;;2.40;2.20;;;;;;;0.38;72.28;100394.14;1827000;77;20947;-79
2021/12/19 04:59:59;;;;;;;;;;;;;;;0.37;72.34;100382.95;1829030;78;20900;-79
2021/12/19 05:02:40;;;;;;;2.72;2.52;;;;;;;0.37;72.35;100380.83;1827955;78;20361;-79
2021/12/19 05:15:51;;;;;;;3.52;3.12;;;;;;;0.38;72.90;100369.19;1827130;78;21029;-79
2021/12/19 05:18:17;;;;;;;6.85;4.17;;;;;;;0.37;73.54;100359.73;1827426;77;20857;-79
2021/12/19 05:21:11;;;;;;;3.98;3.58;;;;;;;0.34;73.90;100354.66;1827215;78;21497;-77
2021/12/19 05:23:23;;;;;;;4.30;3.92;;;;;;;0.33;73.99;100352.11;1820767;77;20862;-80
2021/12/19 05:25:41;;;;;;;6.12;3.50;;;;;;;0.31;74.08;100340.97;1825903;78;20884;-79
2021/12/19 05:28:09;;;;;;;4.08;3.70;;;;;;;0.32;74.11;100340.95;1827104;78;21460;-81
2021/12/19 05:30:35;;;;;;;6.10;5.50;;;;;;;0.33;74.14;100339.21;1827268;78;20853;-81
2021/12/19 05:33:03;;;;;;;4.80;4.40;;;;;;;0.36;74.01;100331.42;1829904;78;21814;-78
2021/12/19 05:35:57;;;;;;;4.70;4.30;;;;;;;0.37;73.96;100327.95;1828995;77;20950;-79
2021/12/19 05:46:18;;;;;;;8.05;5.33;;;;;;;0.35;73.21;100284.13;1827025;78;21140;-78
2021/12/19 05:48:44;;;;;;;11.12;5.80;;;;;;;0.34;73.16;100282.45;1826934;78;20876;-77
2021/12/19 05:51:11;;;;;;;4.80;4.35;;;;;;;0.33;72.75;100272.16;1827085;78;21522;-79
2021/12/19 05:53:38;;;;;;;5.62;3.92;;;;;;;0.32;72.73;100267.90;1826943;77;20932;-78
2021/12/19 05:56:05;;;;;;;17.45;7.70;;;;;;;0.31;72.51;100259.32;1827101;78;20879;-80
2021/12/19 05:58:32;;;;;;;4.90;3.40;;;;;;;0.32;72.31;100249.39;1827243;78;21504;-79
2021/12/19 06:00:59;;;;;;;2.50;2.30;;;;;;;0.31;72.05;100246.42;1826985;77;21461;-79
2021/12/19 06:03:26;;;;;;;4.22;2.98;;;;;;;0.32;71.97;100245.53;1827627;77;20884;-77
2021/12/19 06:05:53;;;;;;;4.30;3.47;;;;;;;0.31;71.94;100242.98;1827033;78;21016;-79
2021/12/19 06:08:20;;;;;;;13.30;4.75;;;;;;;0.31;71.78;100237.81;1827387;78;21405;-80
2021/12/19 06:10:47;;;;;;;3.02;2.72;;;;;;;0.30;71.81;100224.53;1825516;78;21777;-78
2021/12/19 06:13:14;;;;;;;3.85;2.47;;;;;;;0.31;71.90;100229.66;1823206;77;20816;-79
2021/12/19 06:15:41;;;;;;;5.83;3.27;;;;;;;0.30;71.96;100205.19;1823022;78;20938;-78
2021/12/19 06:18:08;;;;;;;2.10;1.90;;;;;;;0.30;71.75;100211.19;1823023;78;20986;-78
2021/12/19 06:20:35;;;;;;;4.87;3.40;;;;;;;0.31;71.72;100199.13;1822868;78;21124;-78
2021/12/19 06:23:02;;;;;;;5.55;4.35;;;;;;;0.31;71.69;100205.58;1822871;78;21122;-78
2021/12/19 06:25:29;;;;;;;3.15;1.90;;;;;;;0.33;71.54;100194.34;1823051;78;20911;-81
2021/12/19 06:27:56;;;;;;;4.08;2.27;;;;;;;0.35;71.34;100189.98;1791512;78;20966;-79
2021/12/19 06:30:23;;;;;;;2.77;1.98;;;;;;;0.38;71.16;100189.09;1822975;78;21350;-79
2021/12/19 06:32:50;;;;;;;3.27;1.87;;;;;;;0.37;70.82;100184.36;1823406;78;20978;-78
2021/12/19 06:35:18;;;;;;;1.90;1.60;;;;;;;0.38;70.73;100166.72;1823114;77;21841;-79
2021/12/19 06:37:46;;;;;;;2.77;2.22;;;;;;;0.40;70.50;100171.82;1822911;78;20863;-80
2021/12/19 06:40:17;;;;;;;2.65;2.08;;;;;;;0.40;70.34;100169.23;1823125;78;20994;-79
2021/12/19 06:42:44;;;;;;;3.33;2.22;;;;;;;0.43;70.32;100157.58;1822173;78;20859;-81
2021/12/19 06:45:10;;;;;;;7.95;4.35;;;;;;;0.45;70.26;100160.13;1822996;78;20914;-80
2021/12/19 06:47:38;;;;;;;5.60;2.90;;;;;;;0.47;70.19;100155.33;1822939;78;21162;-79
2021/12/19 06:50:06;;;;;;;4.05;3.22;;;;;;;0.49;70.36;100151.39;1823125;77;20860;-78
2021/12/19 06:52:33;;;;;;;3.58;2.75;;;;;;;0.51;70.44;100142.75;1822823;78;20871;-80
2021/12/19 06:55:00;;;;;;;4.55;3.33;;;;;;;0.53;70.43;100127.22;1823156;78;20958;-80
2021/12/19 06:57:27;;;;;;;3.30;3.00;;;;;;;0.53;70.48;100128.05;1822920;77;20939;-77
2021/12/19 06:59:53;;;;;;;2.60;2.15;;;;;;;0.54;70.39;100119.44;1791625;78;21449;-79
2021/12/19 07:02:20;;;;;;;3.47;2.50;;;;;;;0.54;70.44;100119.44;1822723;78;21064;-79
2021/12/19 07:04:47;;;;;;;5.37;2.50;;;;;;;0.55;70.61;100116.41;1823108;78;21420;-78
2021/12/19 07:07:14;;;;;;;4.62;2.90;;;;;;;0.57;70.63;100115.48;1822858;78;20871;-79
2021/12/19 07:09:41;;;;;;;4.72;3.70;;;;;;;0.61;70.69;100108.52;1823149;78;20864;-78
2021/12/19 07:12:09;;;;;;;5.37;3.98;;;;;;;0.62;70.62;100110.19;1822846;78;21619;-77
2021/12/19 07:14:38;;;;;;;7.30;3.62;;;;;;;0.65;70.33;100108.84;1822804;78;20960;-78
2021/12/19 07:17:05;;;;;;;4.95;4.53;;;;;;;0.67;70.29;100100.61;1822896;77;20915;-78
2021/12/19 07:19:32;;;;;;;10.85;7.45;;;;;;;0.67;70.30;100098.03;1823125;78;20922;-78
2021/12/19 07:21:59;;;;;;;9.45;6.65;;;;;;;0.68;70.43;100093.26;1822835;77;20923;-79
2021/12/19 07:24:26;;;;;;;9.53;6.62;;;;;;;0.70;70.54;100090.19;1823100;78;21058;-80
2021/12/19 07:26:52;;;;;;;8.68;6.33;;;;;;;0.74;70.58;100085.35;1822719;77;20907;-80
2021/12/19 07:29:20;;;;;;;7.85;6.22;;;;;;;0.76;70.51;100088.73;1822921;78;21408;-77
2021/12/19 07:31:48;;;;;;;7.97;5.65;;;;;;;0.78;70.46;100087.41;1822874;78;20982;-79
2021/12/19 07:34:15;;;;;;;7.67;5.65;;;;;;;0.78;70.52;100081.80;1823288;78;20899;-78
2021/12/19 07:36:49;;;;;;;8.25;6.10;;;;;;;0.77;70.26;100074.93;1822890;77;21106;-80
2021/12/19 07:39:23;;;;;;;9.20;7.83;;;;;;;0.78;70.46;100072.77;1822011;78;21471;-78
2021/12/19 07:41:40;;;;;;;9.80;7.22;;;;;;;0.79;70.51;100061.54;1820394;78;21365;-79
2021/12/19 07:44:07;;;;;;;10.05;6.75;;;;;;;0.82;70.45;100061.89;1822756;77;20939;-79
2021/12/19 07:46:34;;;;;;;11.85;7.30;;;;;;;0.81;70.42;100052.47;1822813;77;21013;-79
2021/12/19 07:49:01;;;;;;;8.43;6.20;;;;;;;0.82;70.75;100058.89;1823210;77;21115;-79
2021/12/19 07:51:29;;;;;;;9.65;7.03;;;;;;;0.81;70.67;100040.41;1822691;77;20887;-80
2021/12/19 07:53:56;;;;;;;8.48;6.87;;;;;;;0.80;70.77;100042.60;1823130;78;21009;-79
2021/12/19 07:56:23;;;;;;;7.47;6.45;;;;;;;0.80;70.79;100038.73;1822843;78;20895;-78
2021/12/19 07:58:50;;;;;;;7.62;5.45;;;;;;;0.80;71.03;100043.89;1822895;77;20915;-78
2021/12/19 08:01:17;;;;;;;9.75;6.60;;;;;;;0.80;70.97;100041.31;1822790;78;21130;-81
2021/12/19 08:03:44;;;;;;;7.05;6.28;;;;;;;0.79;71.12;100024.13;1822875;77;20907;-79
2021/12/19 08:06:11;;;;;;;10.00;6.92;;;;;;;0.82;71.32;100039.53;1822894;78;20879;-78
2021/12/19 08:08:38;;;;;;;14.47;9.38;;;;;;;0.81;71.42;100018.47;1822729;78;20934;-78
2021/12/19 08:13:51;;;;;;;6.65;5.30;;;;;;;0.85;71.45;100022.27;1822826;77;21166;-79
2021/12/19 08:16:18;;;;;;;8.28;5.50;;;;;;;0.87;71.50;99999.39;1822811;78;20974;-79
2021/12/19 08:18:45;;;;;;;9.10;5.65;;;;;;;0.86;71.55;100008.00;1822781;78;20812;-78
2021/12/19 08:21:12;;;;;;;9.55;7.92;;;;;;;0.87;71.72;99995.52;1822642;78;20946;-77
2021/12/19 08:23:39;;;;;;;11.05;7.12;;;;;;;0.87;71.85;99991.64;1822806;78;20903;-78
2021/12/19 08:26:06;;;;;;;7.78;5.05;;;;;;;0.90;71.99;99981.67;1823202;77;21087;-79
2021/12/19 08:28:33;;;;;;;5.30;4.67;;;;;;;0.93;72.01;99972.08;1822596;77;20907;-77
2021/12/19 08:31:00;;;;;;;7.75;5.10;;;;;;;0.94;72.09;99971.20;1822719;78;20947;-78
2021/12/19 08:36:02;;;;;;;5.78;4.60;;;;;;;1.00;72.19;99967.56;1797818;79;22587;-80
2021/12/19 08:38:29;;;;;;;6.20;4.65;;;;;;;0.97;72.12;99959.48;1758402;80;20971;-78
2021/12/19 08:40:59;;;;;;;6.05;4.58;;;;;;;0.98;72.18;99957.77;1758382;80;21141;-77
2021/12/19 08:43:26;;;;;;;7.33;5.03;;;;;;;0.98;72.20;99951.31;1758303;80;21500;-80
2021/12/19 08:45:53;;;;;;;9.88;5.95;;;;;;;0.98;72.21;99946.98;1758483;80;20964;-80
2021/12/19 08:48:22;;;;;;;8.73;5.90;;;;;;;1.00;72.26;99929.72;1757966;80;20967;-79
2021/12/19 08:50:51;;;;;;;9.38;6.22;;;;;;;1.03;72.42;99930.05;1758990;81;21003;-79
2021/12/19 08:53:18;;;;;;;7.28;4.35;;;;;;;1.05;72.42;99919.69;1759898;81;21133;-77
2021/12/19 08:55:46;;;;;;;6.33;4.70;;;;;;;1.07;72.41;99892.05;1759465;80;20935;-83
2021/12/19 08:58:13;;;;;;;4.45;3.70;;;;;;;1.09;72.52;99891.14;1759507;81;21386;-82
2021/12/19 09:00:40;;;;;;;4.90;4.15;;;;;;;1.12;72.50;99891.03;1759134;80;20960;-83
2021/12/19 09:03:09;;;;;;;6.12;4.45;;;;;;;1.13;72.49;99886.70;1758773;80;20900;-82
2021/12/19 09:05:36;;;;;;;7.42;4.05;;;;;;;1.18;72.47;99877.08;1758759;80;21103;-82
2021/12/19 09:08:03;;;;;;;7.62;4.15;;;;;;;1.20;72.59;99876.55;1758445;81;20880;-84
2021/12/19 09:10:32;;;;;;;7.87;5.15;;;;;;;1.21;72.41;99871.34;1758229;80;20983;-83
2021/12/19 09:12:59;;;;;;;7.75;4.67;;;;;;;1.22;72.43;99870.47;1758322;80;20908;-81
2021/12/19 09:15:26;;;;;;;12.53;9.40;;;;;;;1.24;72.60;99868.68;1758564;81;20861;-79
2021/12/19 09:17:53;;;;;;;9.95;4.97;;;;;;;1.26;72.80;99858.28;1758470;80;21792;-83
2021/12/19 09:20:24;;;;;;;11.18;5.67;;;;;;;1.29;72.62;99848.28;1758396;80;20880;-79
2021/12/19 09:22:51;;;;;;;7.87;4.62;;;;;;;1.30;72.69;99845.66;1758238;80;20962;-77
2021/12/19 09:25:19;;;;;;;7.50;5.47;;;;;;;1.30;72.71;99830.16;1758743;80;20932;-81
2021/12/19 09:27:47;;;;;;;11.95;6.08;;;;;;;1.33;72.90;99815.00;1759526;80;20941;-82
2021/12/19 09:30:14;;;;;;;8.75;4.80;;;;;;;1.35;72.85;99811.47;1760095;80;21104;-80
2021/12/19 09:32:43;;;;;;;7.62;5.92;;;;;;;1.37;72.79;99814.84;1759086;80;21468;-79
2021/12/19 09:35:11;;;;;;;11.03;6.40;;;;;;;1.39;72.77;99809.63;1758575;80;20896;-77
2021/12/19 09:37:41;;;;;;;14.18;6.22;;;;;;;1.39;72.68;99804.46;1759395;81;21023;-77
2021/12/19 09:40:12;;;;;;;8.03;5.90;;;;;;;1.41;72.89;99816.42;1741993;81;21444;-78
2021/12/19 09:42:47;;;;;;;8.53;5.45;;;;;;;1.44;72.77;99810.30;1742074;81;21123;-80
2021/12/19 09:45:08;;;;;;;11.12;6.85;;;;;;;1.43;72.90;99806.05;1757855;81;20896;-79
2021/12/19 09:47:36;;;;;;;8.60;5.75;;;;;;;1.42;72.89;99798.75;1757793;81;21592;-81
2021/12/19 09:50:07;;;;;;;10.05;7.50;;;;;;;1.43;72.96;99799.59;1741882;81;20928;-83
2021/12/19 09:52:34;;;;;;;11.88;7.90;;;;;;;1.43;72.97;99781.05;1760351;81;20956;-80
2021/12/19 09:55:02;;;;;;;10.15;6.65;;;;;;;1.44;73.06;99774.13;1759455;81;21461;-82
2021/12/19 09:57:31;;;;;;;10.55;6.67;;;;;;;1.45;73.19;99761.17;1741765;81;21028;-82
2021/12/19 09:59:58;;;;;;;10.50;7.42;;;;;;;1.43;73.10;99744.88;1757930;81;20920;-80
2021/12/19 10:02:28;;;;;;;12.00;7.87;;;;;;;1.42;73.16;99738.47;1716925;81;20912;-78
2021/12/19 10:04:55;;;;;;;8.43;6.45;;;;;;;1.39;73.35;99728.27;1758369;81;20892;-84
2021/12/19 10:07:28;;;;;;;7.50;5.97;;;;;;;1.38;73.55;99733.88;1758408;81;22154;-78
2021/12/19 10:10:04;;;;;;;7.17;5.55;;;;;;;1.39;73.65;99727.80;1758157;80;20940;-80
2021/12/19 10:15:19;;;;;;;9.58;6.92;;;;;;;1.39;73.94;99717.47;1757847;81;20936;-78
2021/12/19 10:17:47;;;;;;;10.53;5.60;;;;;;;1.40;73.95;99707.55;1758252;81;20920;-77
2021/12/19 10:20:16;;;;;;;10.10;6.03;;;;;;;1.41;74.11;99704.05;1757914;81;21561;-77
2021/12/19 10:22:48;;;;;;;7.95;5.62;;;;;;;1.43;74.15;99684.62;1757903;80;20929;-79
2021/12/19 10:25:30;;;;;;;10.05;6.50;;;;;;;1.44;74.18;99669.51;1758137;81;20892;-78
2021/12/19 10:28:09;;;;;;;10.98;7.92;;;;;;;1.43;74.22;99666.55;1757969;81;20877;-79
2021/12/19 10:30:47;;;;;;;9.13;6.47;;;;;;;1.42;74.46;99675.18;1758112;80;21374;-78
2021/12/19 10:33:22;;;;;;;8.53;5.87;;;;;;;1.40;74.57;99655.02;1758074;81;20967;-81
2021/12/19 10:35:53;;;;;;;9.03;6.42;;;;;;;1.41;74.64;99644.64;1758012;80;21056;-80
2021/12/19 10:38:29;;;;;;;24.45;13.88;;;;;;;1.41;74.77;99638.19;1758300;80;20868;-78
2021/12/19 10:41:01;;;;;;;16.25;9.45;;;;;;;1.45;74.88;99636.34;1757342;81;20943;-80
2021/12/19 10:43:32;;;;;;;9.98;7.72;;;;;;;1.49;74.94;99622.83;1758101;81;21011;-78
2021/12/19 10:46:02;;;;;;;13.28;8.33;;;;;;;1.51;74.97;99608.11;1757936;81;21132;-77
2021/12/19 10:48:36;;;;;;;12.40;7.87;;;;;;;1.54;74.96;99604.14;1757839;81;20956;-78
2021/12/19 10:51:14;;;;;;;12.15;8.75;;;;;;;1.56;75.00;99581.67;1758132;80;20932;-78
2021/12/19 10:53:53;;;;;;;11.38;7.87;;;;;;;1.59;75.01;99599.63;1758016;80;21497;-82
2021/12/19 10:56:30;;;;;;;11.88;7.67;;;;;;;1.60;75.20;99600.86;1757943;81;20944;-87
2021/12/19 10:59:07;;;;;;;10.08;7.80;;;;;;;1.60;75.08;99581.48;1757686;80;21176;-85
2021/12/19 11:01:41;;;;;;;13.80;8.63;;;;;;;1.60;75.27;99583.20;1758089;80;21331;-85
2021/12/19 11:04:12;;;;;;;9.73;8.28;;;;;;;1.62;75.27;99575.80;1757799;81;21428;-84
2021/12/19 11:06:56;;;;;;;12.55;8.25;;;;;;;1.63;75.28;99565.02;1757890;80;20959;-85
2021/12/19 11:09:29;;;;;;;10.80;8.75;;;;;;;1.65;75.35;99552.41;1757697;81;21022;-88
2021/12/19 11:11:57;;;;;;;8.13;7.03;;;;;;;1.65;75.29;99549.00;1757795;81;21139;-84
2021/12/19 11:14:42;;;;;;;9.33;7.00;;;;;;;1.65;75.43;99555.00;1758245;80;21394;-86
2021/12/19 11:17:10;;;;;;;10.35;6.67;;;;;;;1.62;75.62;99555.13;1756887;81;20932;-84
2021/12/19 11:19:38;;;;;;;14.05;11.00;;;;;;;1.61;75.71;99547.44;1757962;81;20936;-85
2021/12/19 11:22:05;;;;;;;9.65;6.67;;;;;;;1.61;75.79;99544.84;1757680;80;20857;-87
2021/12/19 11:24:32;;;;;;;10.03;7.50;;;;;;;1.64;75.85;99541.67;1758441;81;21940;-86
2021/12/19 11:27:02;;;;;;;10.10;7.42;;;;;;;1.67;75.83;99534.27;1758132;80;20967;-85
2021/12/19 11:29:31;;;;;;;11.10;8.18;;;;;;;1.69;75.79;99528.59;1757991;81;21484;-85
2021/12/19 11:32:01;;;;;;;13.13;7.83;;;;;;;1.69;75.83;99535.05;1758276;81;20912;-87
2021/12/19 11:35:00;;;;;;;11.05;8.58;;;;;;;1.70;75.75;99530.26;1758838;81;20967;-88
2021/12/19 11:37:38;;;;;;;12.82;6.53;;;;;;;1.71;75.77;99528.50;1757011;81;21329;-87
2021/12/19 11:40:07;;;;;;;12.68;7.47;;;;;;;1.73;75.88;99522.83;1758209;80;20999;-88
2021/12/19 11:42:39;;;;;;;10.00;7.25;;;;;;;1.74;75.99;99528.40;1758407;81;20939;-88
2021/12/19 11:45:35;;;;;;;13.13;7.42;;;;;;;1.75;75.98;99532.19;1758257;81;20893;-87
2021/12/19 11:48:30;;;;;;;10.23;7.72;;;;;;;1.76;75.89;99533.05;1759736;81;20995;-88
2021/12/19 11:51:03;;;;;;;11.88;8.78;;;;;;;1.76;76.03;99519.67;1759349;81;21155;-87
2021/12/19 11:53:41;;;;;;;18.27;7.83;;;;;;;1.76;76.08;99487.83;1759090;80;20983;-88
2021/12/19 11:56:11;;;;;;;7.78;6.35;;;;;;;1.76;76.08;99471.03;1758340;81;20888;-88
2021/12/19 11:58:49;;;;;;;14.15;9.40;;;;;;;1.76;76.20;99482.66;1759485;81;20892;-90
2021/12/19 12:01:27;;;;;;;10.30;7.45;;;;;;;1.75;76.35;99484.38;1759535;81;20928;-89
2021/12/19 12:03:58;;;;;;;10.05;7.87;;;;;;;1.75;76.29;99474.04;1758150;81;21115;-82
2021/12/19 12:06:30;;;;;;;11.43;8.00;;;;;;;1.76;76.38;99467.98;1757794;81;20888;-78
2021/12/19 12:09:28;;;;;;;8.43;6.95;;;;;;;1.75;76.43;99462.41;1758003;80;21001;-81
2021/12/19 12:12:12;;;;;;;8.35;6.87;;;;;;;1.77;76.51;99450.72;1757840;81;21359;-83
2021/12/19 12:14:56;;;;;;;13.85;7.53;;;;;;;1.75;76.61;99467.58;1757644;81;21608;-80
2021/12/19 12:17:31;;;;;;;11.10;7.55;;;;;;;1.77;76.69;99454.14;1757889;80;21877;-79
2021/12/19 12:20:00;;;;;;;9.13;7.30;;;;;;;1.79;76.68;99459.25;1758057;80;21306;-83
2021/12/19 12:22:43;;;;;;;9.78;7.12;;;;;;;1.80;76.70;99465.66;1758168;81;20942;-82
2021/12/19 12:25:28;;;;;;;12.95;9.30;;;;;;;1.80;76.73;99472.55;1757600;80;20943;-79
2021/12/19 12:28:04;;;;;;;10.30;7.97;;;;;;;1.80;76.70;99472.12;1757907;81;20932;-79
2021/12/19 12:30:32;;;;;;;13.05;8.10;;;;;;;1.81;76.76;99456.98;1757917;80;21132;-76
2021/12/19 12:33:01;;;;;;;9.03;7.00;;;;;;;1.80;76.89;99458.34;1757043;81;21382;-77
2021/12/19 12:35:32;;;;;;;10.85;7.10;;;;;;;1.79;76.95;99434.24;1753282;81;20924;-76
2021/12/19 12:38:00;;;;;;;8.83;6.97;;;;;;;1.80;77.00;99428.19;1744271;80;20980;-75
2021/12/19 12:40:42;;;;;;;11.95;8.43;;;;;;;1.82;77.07;99416.46;1744913;80;21338;-77
2021/12/19 12:43:09;;;;;;;8.83;7.00;;;;;;;1.83;77.13;99424.16;1743987;81;21316;-76
2021/12/19 12:46:12;;;;;;;11.75;8.70;;;;;;;1.86;77.31;99416.72;1744806;80;20925;-78
2021/12/19 12:48:44;;;;;;;12.35;8.40;;;;;;;1.87;77.37;99419.71;1744562;81;21615;-77
2021/12/19 12:51:33;;;;;;;10.90;8.55;;;;;;;1.86;77.66;99413.67;1744908;81;20928;-81